sensor_id;sensor_type;location;lat;lon;timestamp;pressure;altitude;pressure_sealevel;temperature;humidity
48035;BME280;33812;46.480;6.834;2023-07-13T00:02:39;93841.69;;;25.34;46.65
48035;BME280;33812;46.480;6.834;2023-07-13T00:06:41;93854.38;;;25.35;46.57
48035;BME280;33812;46.480;6.834;2023-07-13T00:10:45;93854.84;;;25.34;46.95
48035;BME280;33812;46.480;6.834;2023-07-13T00:14:48;93851.59;;;25.35;46.64
48035;BME280;33812;46.480;6.834;2023-07-13T00:18:50;93844.00;;;25.36;46.89
48035;BME280;33812;46.480;6.834;2023-07-13T00:22:53;93850.03;;;25.34;47.33
48035;BME280;33812;46.480;6.834;2023-07-13T00:26:54;93844.16;;;25.32;47.50
48035;BME280;33812;46.480;6.834;2023-07-13T00:30:58;93845.72;;;25.33;47.44
48035;BME280;33812;46.480;6.834;2023-07-13T00:35:00;93847.25;;;25.34;47.97
48035;BME280;33812;46.480;6.834;2023-07-13T00:39:04;93830.56;;;25.34;47.74
48035;BME280;33812;46.480;6.834;2023-07-13T00:43:15;93820.69;;;25.33;48.06
48035;BME280;33812;46.480;6.834;2023-07-13T00:47:19;93807.72;;;25.30;47.87
48035;BME280;33812;46.480;6.834;2023-07-13T00:51:26;93819.75;;;25.27;47.69
48035;BME280;33812;46.480;6.834;2023-07-13T00:55:29;93817.44;;;25.26;47.42
48035;BME280;33812;46.480;6.834;2023-07-13T00:59:31;93814.81;;;25.31;47.34
48035;BME280;33812;46.480;6.834;2023-07-13T01:03:36;93815.91;;;25.34;47.11
48035;BME280;33812;46.480;6.834;2023-07-13T01:07:38;93829.81;;;25.34;47.43
48035;BME280;33812;46.480;6.834;2023-07-13T01:11:41;93818.69;;;25.34;47.33
48035;BME280;33812;46.480;6.834;2023-07-13T01:15:45;93800.44;;;25.33;47.22
48035;BME280;33812;46.480;6.834;2023-07-13T01:19:49;93804.00;;;25.33;47.47
48035;BME280;33812;46.480;6.834;2023-07-13T01:23:52;93802.00;;;25.34;46.97
48035;BME280;33812;46.480;6.834;2023-07-13T01:27:54;93811.56;;;25.33;47.39
48035;BME280;33812;46.480;6.834;2023-07-13T01:31:56;93810.78;;;25.32;47.51
48035;BME280;33812;46.480;6.834;2023-07-13T01:35:57;93810.78;;;25.32;47.36
48035;BME280;33812;46.480;6.834;2023-07-13T01:40:01;93802.91;;;25.31;47.48
48035;BME280;33812;46.480;6.834;2023-07-13T01:44:04;93802.91;;;25.31;47.37
48035;BME280;33812;46.480;6.834;2023-07-13T01:48:06;93802.44;;;25.32;46.90
48035;BME280;33812;46.480;6.834;2023-07-13T01:52:08;93802.91;;;25.31;47.49
48035;BME280;33812;46.480;6.834;2023-07-13T01:56:11;93807.72;;;25.30;47.06
48035;BME280;33812;46.480;6.834;2023-07-13T02:00:13;93808.19;;;25.29;47.40
48035;BME280;33812;46.480;6.834;2023-07-13T02:04:15;93820.06;;;25.29;47.41
48035;BME280;33812;46.480;6.834;2023-07-13T02:08:17;93813.28;;;25.30;47.74
48035;BME280;33812;46.480;6.834;2023-07-13T02:12:20;93805.69;;;25.31;47.67
48035;BME280;33812;46.480;6.834;2023-07-13T02:16:22;93805.69;;;25.31;47.58
48035;BME280;33812;46.480;6.834;2023-07-13T02:20:24;93812.03;;;25.31;47.41
48035;BME280;33812;46.480;6.834;2023-07-13T02:24:26;93806.16;;;25.29;47.71
48035;BME280;33812;46.480;6.834;2023-07-13T02:28:29;93801.06;;;25.28;47.64
48035;BME280;33812;46.480;6.834;2023-07-13T02:32:31;93795.03;;;25.29;47.49
48035;BME280;33812;46.480;6.834;2023-07-13T02:36:34;93791.00;;;25.30;47.30
48035;BME280;33812;46.480;6.834;2023-07-13T02:40:36;93783.91;;;25.29;47.42
48035;BME280;33812;46.480;6.834;2023-07-13T02:44:40;93782.34;;;25.28;47.65
48035;BME280;33812;46.480;6.834;2023-07-13T02:48:41;93777.41;;;25.23;48.07
48035;BME280;33812;46.480;6.834;2023-07-13T02:52:43;93778.50;;;25.26;47.52
48035;BME280;33812;46.480;6.834;2023-07-13T02:56:45;93783.59;;;25.27;47.44
48035;BME280;33812;46.480;6.834;2023-07-13T03:00:48;93782.34;;;25.28;47.39
48035;BME280;33812;46.480;6.834;2023-07-13T03:04:50;93761.06;;;25.25;46.98
48035;BME280;33812;46.480;6.834;2023-07-13T03:08:52;93759.34;;;25.18;47.81
48035;BME280;33812;46.480;6.834;2023-07-13T03:12:54;93780.34;;;25.10;47.63
48035;BME280;33812;46.480;6.834;2023-07-13T03:16:57;93768.47;;;25.19;47.28
48035;BME280;33812;46.480;6.834;2023-07-13T03:20:59;93758.88;;;25.20;47.28
48035;BME280;33812;46.480;6.834;2023-07-13T03:25:00;93771.88;;;25.23;47.60
48035;BME280;33812;46.480;6.834;2023-07-13T03:29:02;93797.66;;;25.23;47.66
48035;BME280;33812;46.480;6.834;2023-07-13T03:33:05;93810.78;;;25.23;48.22
48035;BME280;33812;46.480;6.834;2023-07-13T03:37:07;93811.56;;;25.23;48.42
48035;BME280;33812;46.480;6.834;2023-07-13T03:41:09;93799.66;;;25.23;48.30
48035;BME280;33812;46.480;6.834;2023-07-13T03:45:11;93810.94;;;25.10;49.29
48035;BME280;33812;46.480;6.834;2023-07-13T03:49:14;93820.97;;;25.17;48.88
48035;BME280;33812;46.480;6.834;2023-07-13T03:53:16;93834.88;;;25.17;48.69
48035;BME280;33812;46.480;6.834;2023-07-13T03:57:18;93838.63;;;25.04;49.15
48035;BME280;33812;46.480;6.834;2023-07-13T04:01:22;93838.59;;;25.14;48.52
48035;BME280;33812;46.480;6.834;2023-07-13T04:05:26;93847.25;;;25.16;48.46
48035;BME280;33812;46.480;6.834;2023-07-13T04:09:28;93850.34;;;25.18;48.21
48035;BME280;33812;46.480;6.834;2023-07-13T04:13:30;93855.28;;;25.14;48.74
48035;BME280;33812;46.480;6.834;2023-07-13T04:17:32;93849.56;;;25.17;48.84
48035;BME280;33812;46.480;6.834;2023-07-13T04:21:36;93839.69;;;25.16;49.01
48035;BME280;33812;46.480;6.834;2023-07-13T04:25:38;93841.84;;;25.03;49.15
48035;BME280;33812;46.480;6.834;2023-07-13T04:29:40;93854.34;;;24.98;49.29
48035;BME280;33812;46.480;6.834;2023-07-13T04:33:42;93859.75;;;25.02;49.12
48035;BME280;33812;46.480;6.834;2023-07-13T04:37:45;93860.84;;;25.14;48.94
48035;BME280;33812;46.480;6.834;2023-07-13T04:41:47;93859.91;;;25.17;48.40
48035;BME280;33812;46.480;6.834;2023-07-13T04:45:49;93867.03;;;25.18;48.68
48035;BME280;33812;46.480;6.834;2023-07-13T04:49:51;93876.59;;;25.17;49.09
48035;BME280;33812;46.480;6.834;2023-07-13T04:53:54;93873.41;;;24.58;49.68
48035;BME280;33812;46.480;6.834;2023-07-13T04:57:57;93874.69;;;24.85;49.13
48035;BME280;33812;46.480;6.834;2023-07-13T05:01:59;93880.06;;;24.70;49.69
48035;BME280;33812;46.480;6.834;2023-07-13T05:06:07;93890.56;;;24.25;50.17
48035;BME280;33812;46.480;6.834;2023-07-13T05:10:11;93881.97;;;24.10;51.15
48035;BME280;33812;46.480;6.834;2023-07-13T05:14:13;93890.44;;;24.06;50.91
48035;BME280;33812;46.480;6.834;2023-07-13T05:18:16;93888.44;;;24.38;50.25
48035;BME280;33812;46.480;6.834;2023-07-13T05:22:18;93898.41;;;24.68;49.90
48035;BME280;33812;46.480;6.834;2023-07-13T05:26:21;93887.78;;;24.75;49.97
48035;BME280;33812;46.480;6.834;2023-07-13T05:30:23;93885.19;;;24.81;49.76
48035;BME280;33812;46.480;6.834;2023-07-13T05:34:25;93890.59;;;24.85;49.99
48035;BME280;33812;46.480;6.834;2023-07-13T05:38:27;93886.59;;;24.86;49.90
48035;BME280;33812;46.480;6.834;2023-07-13T05:42:30;93889.22;;;24.90;50.31
48035;BME280;33812;46.480;6.834;2023-07-13T05:46:32;93885.66;;;24.89;50.43
48035;BME280;33812;46.480;6.834;2023-07-13T05:50:34;93898.19;;;24.94;50.37
48035;BME280;33812;46.480;6.834;2023-07-13T05:54:36;93889.56;;;24.92;50.23
48035;BME280;33812;46.480;6.834;2023-07-13T05:58:39;93893.53;;;24.91;49.95
48035;BME280;33812;46.480;6.834;2023-07-13T06:02:42;93909.63;;;24.96;49.98
48035;BME280;33812;46.480;6.834;2023-07-13T06:06:43;93903.75;;;24.94;50.01
48035;BME280;33812;46.480;6.834;2023-07-13T06:10:45;93922.31;;;24.97;50.18
48035;BME280;33812;46.480;6.834;2023-07-13T06:14:48;93919.22;;;24.95;50.07
48035;BME280;33812;46.480;6.834;2023-07-13T06:18:50;93933.69;;;24.90;50.65
48035;BME280;33812;46.480;6.834;2023-07-13T06:22:52;93945.25;;;24.79;50.94
48035;BME280;33812;46.480;6.834;2023-07-13T06:26:53;93952.84;;;24.87;50.84
48035;BME280;33812;46.480;6.834;2023-07-13T06:30:57;93947.59;;;24.90;50.51
48035;BME280;33812;46.480;6.834;2023-07-13T06:34:59;93952.50;;;24.85;50.98
48035;BME280;33812;46.480;6.834;2023-07-13T06:39:00;93970.19;;;24.92;50.70
48035;BME280;33812;46.480;6.834;2023-07-13T06:43:02;93983.28;;;24.91;51.20
48035;BME280;33812;46.480;6.834;2023-07-13T06:47:06;93966.94;;;24.93;50.88
48035;BME280;33812;46.480;6.834;2023-07-13T06:51:08;93971.38;;;24.91;51.42
48035;BME280;33812;46.480;6.834;2023-07-13T06:55:09;93968.94;;;24.93;50.47
48035;BME280;33812;46.480;6.834;2023-07-13T06:59:11;93958.25;;;24.91;51.02
48035;BME280;33812;46.480;6.834;2023-07-13T07:03:14;93962.91;;;24.94;50.79
48035;BME280;33812;46.480;6.834;2023-07-13T07:07:16;93966.47;;;24.95;51.02
48035;BME280;33812;46.480;6.834;2023-07-13T07:11:23;93964.31;;;24.99;50.65
48035;BME280;33812;46.480;6.834;2023-07-13T07:15:26;93974.03;;;24.94;51.49
48035;BME280;33812;46.480;6.834;2023-07-13T07:19:30;93976.31;;;24.86;52.33
48035;BME280;33812;46.480;6.834;2023-07-13T07:23:32;93986.88;;;24.92;51.12
48035;BME280;33812;46.480;6.834;2023-07-13T07:27:34;93991.19;;;24.93;51.70
48035;BME280;33812;46.480;6.834;2023-07-13T07:31:35;93998.41;;;24.90;52.02
48035;BME280;33812;46.480;6.834;2023-07-13T07:35:39;93999.84;;;24.95;51.77
48035;BME280;33812;46.480;6.834;2023-07-13T07:39:42;93991.81;;;24.97;51.65
48035;BME280;33812;46.480;6.834;2023-07-13T07:43:44;93991.88;;;24.84;52.32
48035;BME280;33812;46.480;6.834;2023-07-13T07:47:45;93998.41;;;24.90;51.74
48035;BME280;33812;46.480;6.834;2023-07-13T07:51:49;93994.59;;;24.97;51.70
48035;BME280;33812;46.480;6.834;2023-07-13T07:55:51;93986.41;;;24.93;52.02
48035;BME280;33812;46.480;6.834;2023-07-13T07:59:53;93984.09;;;24.92;52.66
48035;BME280;33812;46.480;6.834;2023-07-13T08:03:55;93987.16;;;24.94;52.18
48035;BME280;33812;46.480;6.834;2023-07-13T08:07:58;93977.91;;;24.97;52.60
48035;BME280;33812;46.480;6.834;2023-07-13T08:11:59;93982.25;;;24.98;52.66
48035;BME280;33812;46.480;6.834;2023-07-13T08:16:04;93987.47;;;24.96;52.79
48035;BME280;33812;46.480;6.834;2023-07-13T08:20:07;94007.06;;;24.92;52.95
48035;BME280;33812;46.480;6.834;2023-07-13T08:24:11;94004.81;;;25.00;52.53
48035;BME280;33812;46.480;6.834;2023-07-13T08:28:12;94003.84;;;24.94;53.34
48035;BME280;33812;46.480;6.834;2023-07-13T08:32:14;94003.69;;;24.97;53.48
48035;BME280;33812;46.480;6.834;2023-07-13T08:36:16;94009.13;;;25.01;52.73
48035;BME280;33812;46.480;6.834;2023-07-13T08:40:23;94010.03;;;24.98;53.66
48035;BME280;33812;46.480;6.834;2023-07-13T08:44:32;94011.88;;;24.92;53.17
48035;BME280;33812;46.480;6.834;2023-07-13T08:48:42;94005.59;;;25.01;53.05
48035;BME280;33812;46.480;6.834;2023-07-13T08:52:46;94010.53;;;25.06;52.33
48035;BME280;33812;46.480;6.834;2023-07-13T08:56:50;94015.31;;;25.05;53.04
48035;BME280;33812;46.480;6.834;2023-07-13T09:01:00;94017.19;;;25.08;52.89
48035;BME280;33812;46.480;6.834;2023-07-13T09:05:10;94018.75;;;25.09;54.70
48035;BME280;33812;46.480;6.834;2023-07-13T09:09:19;94015.03;;;25.13;52.96
48035;BME280;33812;46.480;6.834;2023-07-13T09:13:35;94020.91;;;25.15;52.79
48035;BME280;33812;46.480;6.834;2023-07-13T09:17:43;94016.91;;;25.16;52.78
48035;BME280;33812;46.480;6.834;2023-07-13T09:21:51;94019.69;;;25.16;53.50
48035;BME280;33812;46.480;6.834;2023-07-13T09:26:00;94021.22;;;25.17;53.26
48035;BME280;33812;46.480;6.834;2023-07-13T09:30:20;94021.53;;;25.19;53.07
48035;BME280;33812;46.480;6.834;2023-07-13T09:34:25;94026.31;;;25.18;53.32
48035;BME280;33812;46.480;6.834;2023-07-13T09:38:29;94025.56;;;25.18;53.34
48035;BME280;33812;46.480;6.834;2023-07-13T09:42:32;94040.47;;;25.02;52.64
48035;BME280;33812;46.480;6.834;2023-07-13T09:46:36;94030.19;;;24.48;52.74
48035;BME280;33812;46.480;6.834;2023-07-13T09:50:39;94039.03;;;24.33;53.09
48035;BME280;33812;46.480;6.834;2023-07-13T09:54:45;94042.50;;;24.24;54.29
48035;BME280;33812;46.480;6.834;2023-07-13T09:58:49;94039.25;;;24.71;52.82
48035;BME280;33812;46.480;6.834;2023-07-13T10:03:04;94050.91;;;24.88;52.89
48035;BME280;33812;46.480;6.834;2023-07-13T10:07:08;94051.56;;;24.92;53.05
48035;BME280;33812;46.480;6.834;2023-07-13T10:11:12;94048.63;;;24.96;53.03
48035;BME280;33812;46.480;6.834;2023-07-13T10:15:21;94051.28;;;24.99;52.69
48035;BME280;33812;46.480;6.834;2023-07-13T10:19:26;94057.63;;;25.00;52.52
48035;BME280;33812;46.480;6.834;2023-07-13T10:23:34;94050.50;;;24.99;52.60
48035;BME280;33812;46.480;6.834;2023-07-13T10:27:36;94055.16;;;25.02;52.73
48035;BME280;33812;46.480;6.834;2023-07-13T10:31:38;94063.06;;;25.04;53.00
48035;BME280;33812;46.480;6.834;2023-07-13T10:35:43;94057.16;;;25.02;52.52
48035;BME280;33812;46.480;6.834;2023-07-13T10:39:47;94057.50;;;25.04;52.23
48035;BME280;33812;46.480;6.834;2023-07-13T10:43:51;94061.94;;;25.01;52.11
48035;BME280;33812;46.480;6.834;2023-07-13T10:47:55;94060.72;;;25.02;52.67
48035;BME280;33812;46.480;6.834;2023-07-13T10:51:59;94063.84;;;25.04;52.56
48035;BME280;33812;46.480;6.834;2023-07-13T10:56:02;94062.91;;;25.07;52.77
48035;BME280;33812;46.480;6.834;2023-07-13T11:00:17;94068.16;;;25.05;52.27
48035;BME280;33812;46.480;6.834;2023-07-13T11:04:19;94064.91;;;25.07;53.00
48035;BME280;33812;46.480;6.834;2023-07-13T11:08:33;94071.25;;;25.07;52.92
48035;BME280;33812;46.480;6.834;2023-07-13T11:12:51;94066.44;;;25.08;52.13
48035;BME280;33812;46.480;6.834;2023-07-13T11:16:54;94064.44;;;25.08;52.30
48035;BME280;33812;46.480;6.834;2023-07-13T11:21:14;94070.00;;;25.08;52.67
48035;BME280;33812;46.480;6.834;2023-07-13T11:25:29;94078.34;;;25.08;52.11
48035;BME280;33812;46.480;6.834;2023-07-13T11:29:36;94074.78;;;25.08;51.77
48035;BME280;33812;46.480;6.834;2023-07-13T11:33:52;94070.78;;;25.09;51.61
48035;BME280;33812;46.480;6.834;2023-07-13T11:37:54;94069.56;;;25.10;51.67
48035;BME280;33812;46.480;6.834;2023-07-13T11:42:00;94064.31;;;25.12;52.00
48035;BME280;33812;46.480;6.834;2023-07-13T11:46:18;94057.97;;;25.11;52.02
48035;BME280;33812;46.480;6.834;2023-07-13T11:50:24;94053.19;;;25.12;51.92
48035;BME280;33812;46.480;6.834;2023-07-13T11:54:28;94047.16;;;25.14;51.79
48035;BME280;33812;46.480;6.834;2023-07-13T11:58:32;94044.38;;;25.14;51.44
48035;BME280;33812;46.480;6.834;2023-07-13T12:02:37;94047.50;;;25.16;52.18
48035;BME280;33812;46.480;6.834;2023-07-13T12:06:40;94043.94;;;25.15;51.83
48035;BME280;33812;46.480;6.834;2023-07-13T12:10:43;94031.41;;;25.10;51.59
48035;BME280;33812;46.480;6.834;2023-07-13T12:14:52;94026.63;;;25.11;53.08
48035;BME280;33812;46.480;6.834;2023-07-13T12:18:56;94028.91;;;25.03;51.06
48035;BME280;33812;46.480;6.834;2023-07-13T12:22:58;94019.88;;;24.90;50.31
48035;BME280;33812;46.480;6.834;2023-07-13T12:27:01;94022.19;;;24.91;50.73
48035;BME280;33812;46.480;6.834;2023-07-13T12:31:07;94023.44;;;24.90;48.99
48035;BME280;33812;46.480;6.834;2023-07-13T12:35:17;94019.75;;;24.93;50.58
48035;BME280;33812;46.480;6.834;2023-07-13T12:39:21;94013.06;;;24.91;49.77
48035;BME280;33812;46.480;6.834;2023-07-13T12:43:25;94014.31;;;24.90;48.80
48035;BME280;33812;46.480;6.834;2023-07-13T12:47:29;94017.31;;;24.95;50.60
48035;BME280;33812;46.480;6.834;2023-07-13T12:51:31;94011.44;;;24.93;50.33
48035;BME280;33812;46.480;6.834;2023-07-13T12:55:41;94010.28;;;24.91;50.28
48035;BME280;33812;46.480;6.834;2023-07-13T12:59:43;94005.66;;;24.87;48.79
48035;BME280;33812;46.480;6.834;2023-07-13T13:03:48;94004.41;;;24.88;49.51
48035;BME280;33812;46.480;6.834;2023-07-13T13:07:52;94006.72;;;24.81;48.24
48035;BME280;33812;46.480;6.834;2023-07-13T13:11:53;94018.59;;;24.81;46.02
48035;BME280;33812;46.480;6.834;2023-07-13T13:15:55;94016.44;;;24.85;47.13
48035;BME280;33812;46.480;6.834;2023-07-13T13:19:59;94015.69;;;24.85;48.70
48035;BME280;33812;46.480;6.834;2023-07-13T13:24:01;94017.69;;;24.84;48.58
48035;BME280;33812;46.480;6.834;2023-07-13T13:28:03;94014.44;;;24.86;49.28
48035;BME280;33812;46.480;6.834;2023-07-13T13:32:08;94019.22;;;24.85;48.92
48035;BME280;33812;46.480;6.834;2023-07-13T13:36:18;94018.19;;;24.92;48.97
48035;BME280;33812;46.480;6.834;2023-07-13T13:40:21;94019.88;;;24.90;46.75
48035;BME280;33812;46.480;6.834;2023-07-13T13:44:23;94020.34;;;24.88;46.80
48035;BME280;33812;46.480;6.834;2023-07-13T13:48:30;94012.63;;;24.92;46.93
48035;BME280;33812;46.480;6.834;2023-07-13T13:52:33;94020.22;;;24.92;47.49
48035;BME280;33812;46.480;6.834;2023-07-13T13:56:35;94011.53;;;24.90;47.60
48035;BME280;33812;46.480;6.834;2023-07-13T14:00:37;94004.41;;;24.88;46.88
48035;BME280;33812;46.480;6.834;2023-07-13T14:04:39;94000.09;;;24.87;46.09
48035;BME280;33812;46.480;6.834;2023-07-13T14:08:43;94009.69;;;24.86;44.50
48035;BME280;33812;46.480;6.834;2023-07-13T14:12:46;94001.16;;;24.81;43.02
48035;BME280;33812;46.480;6.834;2023-07-13T14:16:49;94006.09;;;24.86;43.46
48035;BME280;33812;46.480;6.834;2023-07-13T14:20:53;94006.44;;;24.88;44.70
48035;BME280;33812;46.480;6.834;2023-07-13T14:24:56;94003.19;;;24.90;43.43
48035;BME280;33812;46.480;6.834;2023-07-13T14:28:59;94007.19;;;24.88;44.14
48035;BME280;33812;46.480;6.834;2023-07-13T14:33:01;94004.72;;;24.91;44.48
48035;BME280;33812;46.480;6.834;2023-07-13T14:37:03;94001.06;;;24.94;44.52
48035;BME280;33812;46.480;6.834;2023-07-13T14:41:08;94001.63;;;24.88;44.61
48035;BME280;33812;46.480;6.834;2023-07-13T14:45:14;93997.97;;;24.92;44.69
48035;BME280;33812;46.480;6.834;2023-07-13T14:49:26;93998.41;;;24.90;45.17
48035;BME280;33812;46.480;6.834;2023-07-13T14:53:28;93992.72;;;24.94;44.15
48035;BME280;33812;46.480;6.834;2023-07-13T14:57:31;93996.38;;;24.91;42.83
48035;BME280;33812;46.480;6.834;2023-07-13T15:01:33;93999.53;;;24.93;42.97
48035;BME280;33812;46.480;6.834;2023-07-13T15:05:35;93995.50;;;24.94;43.51
48035;BME280;33812;46.480;6.834;2023-07-13T15:09:37;93998.41;;;24.90;41.92
48035;BME280;33812;46.480;6.834;2023-07-13T15:13:41;93988.06;;;24.91;42.56
48035;BME280;33812;46.480;6.834;2023-07-13T15:17:46;93998.28;;;24.94;41.27
48035;BME280;33812;46.480;6.834;2023-07-13T15:21:50;93993.50;;;24.94;41.10
48035;BME280;33812;46.480;6.834;2023-07-13T15:25:52;93991.19;;;24.93;40.36
48035;BME280;33812;46.480;6.834;2023-07-13T15:29:55;93987.47;;;24.96;42.17
48035;BME280;33812;46.480;6.834;2023-07-13T15:33:58;93985.63;;;24.93;40.53
48035;BME280;33812;46.480;6.834;2023-07-13T15:38:00;93985.28;;;24.91;39.33
48035;BME280;33812;46.480;6.834;2023-07-13T15:42:03;93981.31;;;24.92;39.97
48035;BME280;33812;46.480;6.834;2023-07-13T15:46:06;93979.38;;;24.88;39.73
48035;BME280;33812;46.480;6.834;2023-07-13T15:50:12;93982.06;;;24.92;40.49
48035;BME280;33812;46.480;6.834;2023-07-13T15:54:16;93974.81;;;24.95;39.97
48035;BME280;33812;46.480;6.834;2023-07-13T15:58:18;93974.50;;;24.93;40.70
48035;BME280;33812;46.480;6.834;2023-07-13T16:02:22;93977.59;;;24.95;40.51
48035;BME280;33812;46.480;6.834;2023-07-13T16:06:26;93975.91;;;24.97;41.06
48035;BME280;33812;46.480;6.834;2023-07-13T16:10:32;93974.50;;;24.93;39.18
48035;BME280;33812;46.480;6.834;2023-07-13T16:14:35;93976.34;;;24.96;40.28
48035;BME280;33812;46.480;6.834;2023-07-13T16:18:38;93968.81;;;24.96;38.37
48035;BME280;33812;46.480;6.834;2023-07-13T16:22:44;93968.34;;;24.98;40.12
48035;BME280;33812;46.480;6.834;2023-07-13T16:26:47;93966.66;;;25.01;41.21
48035;BME280;33812;46.480;6.834;2023-07-13T16:30:49;93969.13;;;24.98;40.64
48035;BME280;33812;46.480;6.834;2023-07-13T16:34:52;93966.34;;;24.98;40.25
48035;BME280;33812;46.480;6.834;2023-07-13T16:38:54;93969.59;;;24.97;41.95
48035;BME280;33812;46.480;6.834;2023-07-13T16:42:57;93973.72;;;24.92;40.98
48035;BME280;33812;46.480;6.834;2023-07-13T16:47:00;93972.81;;;24.95;41.94
48035;BME280;33812;46.480;6.834;2023-07-13T16:51:03;93970.34;;;24.97;41.12
48035;BME280;33812;46.480;6.834;2023-07-13T16:55:09;93973.44;;;24.99;40.93
48035;BME280;33812;46.480;6.834;2023-07-13T16:59:13;93973.91;;;24.98;39.63
48035;BME280;33812;46.480;6.834;2023-07-13T17:03:17;93978.69;;;24.97;40.39
48035;BME280;33812;46.480;6.834;2023-07-13T17:07:20;93977.00;;;25.00;40.62
48035;BME280;33812;46.480;6.834;2023-07-13T17:11:23;93977.31;;;25.02;41.53
48035;BME280;33812;46.480;6.834;2023-07-13T17:15:27;93982.88;;;25.02;41.12
48035;BME280;33812;46.480;6.834;2023-07-13T17:19:30;93978.84;;;25.03;40.13
48035;BME280;33812;46.480;6.834;2023-07-13T17:23:36;93984.41;;;25.03;41.21
48035;BME280;33812;46.480;6.834;2023-07-13T17:27:38;93988.19;;;24.87;41.52
48035;BME280;33812;46.480;6.834;2023-07-13T17:31:40;93983.66;;;24.71;41.73
48035;BME280;33812;46.480;6.834;2023-07-13T17:35:43;93987.31;;;24.58;41.66
48035;BME280;33812;46.480;6.834;2023-07-13T17:39:46;93984.28;;;24.43;42.18
48035;BME280;33812;46.480;6.834;2023-07-13T17:43:48;93986.19;;;24.46;41.81
48035;BME280;33812;46.480;6.834;2023-07-13T17:47:50;93985.22;;;24.40;42.21
48035;BME280;33812;46.480;6.834;2023-07-13T17:51:53;93983.47;;;24.33;42.65
48035;BME280;33812;46.480;6.834;2023-07-13T17:55:56;93978.56;;;24.37;42.70
48035;BME280;33812;46.480;6.834;2023-07-13T17:59:58;93982.16;;;24.47;42.22
48035;BME280;33812;46.480;6.834;2023-07-13T18:04:00;93976.31;;;24.23;42.16
48035;BME280;33812;46.480;6.834;2023-07-13T18:08:04;93981.75;;;24.26;41.23
48035;BME280;33812;46.480;6.834;2023-07-13T18:12:09;93983.03;;;24.12;41.06
48035;BME280;33812;46.480;6.834;2023-07-13T18:16:15;93983.16;;;24.09;41.06
48035;BME280;33812;46.480;6.834;2023-07-13T18:20:20;93969.97;;;24.00;40.32
48035;BME280;33812;46.480;6.834;2023-07-13T18:24:22;93975.34;;;24.17;39.73
48035;BME280;33812;46.480;6.834;2023-07-13T18:28:25;93973.41;;;24.04;40.02
48035;BME280;33812;46.480;6.834;2023-07-13T18:32:27;93975.59;;;24.09;39.32
48035;BME280;33812;46.480;6.834;2023-07-13T18:36:29;93971.38;;;24.05;39.58
48035;BME280;33812;46.480;6.834;2023-07-13T18:40:31;93963.19;;;24.01;39.33
48035;BME280;33812;46.480;6.834;2023-07-13T18:44:35;93963.00;;;23.95;39.32
48035;BME280;33812;46.480;6.834;2023-07-13T18:48:37;93964.44;;;24.00;38.87
48035;BME280;33812;46.480;6.834;2023-07-13T18:52:40;93961.56;;;23.90;39.97
48035;BME280;33812;46.480;6.834;2023-07-13T18:56:42;93967.66;;;23.76;39.44
48035;BME280;33812;46.480;6.834;2023-07-13T19:00:46;93966.94;;;23.85;38.60
48035;BME280;33812;46.480;6.834;2023-07-13T19:04:49;93954.03;;;23.91;38.58
48035;BME280;33812;46.480;6.834;2023-07-13T19:08:51;93957.31;;;23.76;39.17
48035;BME280;33812;46.480;6.834;2023-07-13T19:12:56;93956.56;;;24.21;39.70
48035;BME280;33812;46.480;6.834;2023-07-13T19:17:00;93943.22;;;24.38;39.20
48035;BME280;33812;46.480;6.834;2023-07-13T19:21:08;93949.28;;;24.46;40.62
48035;BME280;33812;46.480;6.834;2023-07-13T19:25:14;93949.00;;;24.53;41.00
48035;BME280;33812;46.480;6.834;2023-07-13T19:29:19;93946.09;;;24.57;41.76
48035;BME280;33812;46.480;6.834;2023-07-13T19:33:23;93961.06;;;24.59;41.51
48035;BME280;33812;46.480;6.834;2023-07-13T19:37:24;93959.06;;;24.60;42.13
48035;BME280;33812;46.480;6.834;2023-07-13T19:41:27;93961.38;;;24.61;41.93
48035;BME280;33812;46.480;6.834;2023-07-13T19:45:28;93968.50;;;24.62;42.01
48035;BME280;33812;46.480;6.834;2023-07-13T19:49:32;93968.50;;;24.62;41.85
48035;BME280;33812;46.480;6.834;2023-07-13T19:53:33;93968.03;;;24.64;41.75
48035;BME280;33812;46.480;6.834;2023-07-13T19:57:35;93977.16;;;24.65;41.62
48035;BME280;33812;46.480;6.834;2023-07-13T20:01:37;93975.16;;;24.65;41.69
48035;BME280;33812;46.480;6.834;2023-07-13T20:05:40;93984.25;;;24.66;41.85
48035;BME280;33812;46.480;6.834;2023-07-13T20:09:47;93990.59;;;24.66;41.97
48035;BME280;33812;46.480;6.834;2023-07-13T20:13:50;93987.34;;;24.68;42.08
48035;BME280;33812;46.480;6.834;2023-07-13T20:17:53;93987.34;;;24.68;41.80
48035;BME280;33812;46.480;6.834;2023-07-13T20:21:57;93993.69;;;24.68;41.67
48035;BME280;33812;46.480;6.834;2023-07-13T20:25:59;93995.69;;;24.68;41.41
48035;BME280;33812;46.480;6.834;2023-07-13T20:30:01;93988.91;;;24.69;41.92
48035;BME280;33812;46.480;6.834;2023-07-13T20:34:06;94001.25;;;24.68;41.85
48035;BME280;33812;46.480;6.834;2023-07-13T20:38:12;94008.03;;;24.67;41.33
48035;BME280;33812;46.480;6.834;2023-07-13T20:42:14;94010.03;;;24.66;41.56
48035;BME280;33812;46.480;6.834;2023-07-13T20:46:19;94008.81;;;24.67;40.98
48035;BME280;33812;46.480;6.834;2023-07-13T20:50:23;94006.50;;;24.66;41.14
48035;BME280;33812;46.480;6.834;2023-07-13T20:54:28;93996.91;;;24.67;40.87
48035;BME280;33812;46.480;6.834;2023-07-13T20:58:29;93992.91;;;24.68;40.95
48035;BME280;33812;46.480;6.834;2023-07-13T21:02:32;94000.03;;;24.69;40.70
48035;BME280;33812;46.480;6.834;2023-07-13T21:06:34;93998.91;;;24.66;40.38
48035;BME280;33812;46.480;6.834;2023-07-13T21:10:38;94001.25;;;24.68;40.72
48035;BME280;33812;46.480;6.834;2023-07-13T21:14:40;93996.91;;;24.67;40.57
48035;BME280;33812;46.480;6.834;2023-07-13T21:18:42;94005.59;;;24.69;40.01
48035;BME280;33812;46.480;6.834;2023-07-13T21:22:45;93994.13;;;24.67;40.34
48035;BME280;33812;46.480;6.834;2023-07-13T21:26:48;94004.00;;;24.68;40.15
48035;BME280;33812;46.480;6.834;2023-07-13T21:30:51;94000.47;;;24.67;40.14